Fairwater, Wisconsin
Current Conditions -  °F | °C
As of 7:53 PM on Sunday 23 Nov 2014 (Local Time) from KFLD Reporting Station
Light Rain Light Rain  
Wind Chill: 43°   Ceiling: 6000
Heat Index: 47°   Visibility: 6mi
Dew Point: 44°   Wind: 9mph
Humidity: 90%   Direction: 140°SE
Pressure: 29.3"   Gusts: NA
Location:  43.74°N, 88.87°W
Report Text: KFLD 240153Z AUTO 14008KT 6SM -RA BR OVC060 08/07 A2930 RMK AO2 SLP924 P0002 T00830067
Loading
Personal Weather Stations






























Interactive Weather Map New forecast layout! Learn more

10-Day Weather Forecast

Advertisements
Track Severe Weather on mobile